Terminal Aerodrome Forecast
Issued by NWS

Home | Current Version | Previous Version | Text Only | Print | Product List | Glossary On
Versions: 1 2 3 4 5 6 7 8 9 10 11 12 13 14 15 16 17 18 19 20
000
FTUS43 KMQT 201700
TAFSAW
TAF
KSAW 201728Z 2018/2118 23008KT P6SM FEW200
     FM202100 05007KT P6SM SKC
     FM210300 VRB03KT 4SM BR FEW005
     FM210600 VRB03KT 2SM BR SCT002
     FM210900 VRB03KT 1SM BR VV002
     FM211500 16003KT P6SM FEW007 SCT120
      AMD LTD TO CLD VIS AND WIND 2102/2110=

USA.gov is the U.S. government's official web portal to all federal, state and local government web resources and services.